Time;durP1;ratioP1;P1;durP2;ratioP2;P2;SDS_P1;SDS_P2;PMS_P1;PMS_P2;Temp;Humidity;BMP_temperature;BMP_pressure;BME280_temperature;BME280_humidity;BME280_pressure;Samples;Min_cycle;Max_cycle;Signal;HPM_P1;HPM_P2
2023/03/14 00:01:13;;;;;;;153.02;81.15;;;4.90;1.00;;;;;;4912875;29;20044;-77
2023/03/14 00:03:40;;;;;;;148.52;76.78;;;4.90;1.00;;;;;;4913420;29;20071;-76
2023/03/14 00:06:09;;;;;;;149.57;73.63;;;4.90;1.00;;;;;;4912930;29;20051;-77
2023/03/14 00:08:37;;;;;;;127.63;62.85;;;4.90;1.00;;;;;;4895968;29;20056;-78
2023/03/14 00:11:08;;;;;;;119.30;60.75;;;4.90;99.90;;;;;;4912678;29;20039;-78
2023/03/14 00:13:38;;;;;;;112.60;58.03;;;5.00;1.00;;;;;;4896223;29;20051;-77
2023/03/14 00:16:07;;;;;;;106.57;55.00;;;5.00;1.00;;;;;;4912897;29;20047;-79
2023/03/14 00:18:35;;;;;;;113.90;59.03;;;4.90;1.00;;;;;;4912957;29;20043;-77
2023/03/14 00:21:04;;;;;;;142.32;71.80;;;4.90;1.00;;;;;;4895739;29;20076;-78
2023/03/14 00:23:34;;;;;;;134.73;68.95;;;4.90;1.00;;;;;;4896315;29;20040;-76
2023/03/14 00:26:02;;;;;;;132.57;64.40;;;4.90;99.90;;;;;;4919625;29;20100;-78
2023/03/14 00:28:30;;;;;;;138.98;71.63;;;4.90;1.00;;;;;;4905453;29;20059;-78
2023/03/14 00:30:59;;;;;;;140.18;71.07;;;4.90;1.00;;;;;;4914365;29;20516;-76
2023/03/14 00:33:26;;;;;;;130.93;66.70;;;4.90;1.00;;;;;;4912728;29;20424;-76
2023/03/14 00:35:55;;;;;;;150.10;73.68;;;4.90;99.90;;;;;;4912834;29;20084;-77
2023/03/14 00:38:24;;;;;;;170.05;85.90;;;4.90;70.70;;;;;;4895304;29;20044;-79
2023/03/14 00:40:51;;;;;;;147.35;77.65;;;4.90;1.00;;;;;;4895100;29;20131;-76
2023/03/14 00:43:21;;;;;;;128.70;71.50;;;4.90;1.00;;;;;;4913331;29;20055;-78
2023/03/14 00:45:49;;;;;;;134.88;69.43;;;4.90;1.00;;;;;;4895083;29;20039;-78
2023/03/14 00:48:18;;;;;;;137.82;70.68;;;4.90;1.00;;;;;;4896270;29;20051;-76
2023/03/14 00:50:46;;;;;;;137.10;69.00;;;4.90;99.90;;;;;;4911652;29;20075;-76
2023/03/14 00:53:16;;;;;;;134.38;68.50;;;4.90;99.90;;;;;;4920640;29;20041;-78
2023/03/14 00:55:44;;;;;;;129.90;72.03;;;4.90;99.90;;;;;;4922832;29;20036;-77
2023/03/14 00:58:14;;;;;;;158.57;82.47;;;4.80;99.90;;;;;;4907268;29;20704;-76
2023/03/14 01:00:42;;;;;;;143.45;79.47;;;4.80;17.80;;;;;;4897563;29;20112;-77
2023/03/14 01:03:10;;;;;;;133.82;74.30;;;4.80;99.90;;;;;;4913675;29;20075;-77
2023/03/14 01:05:40;;;;;;;144.27;76.53;;;4.70;99.90;;;;;;4899816;29;20040;-78
2023/03/14 01:08:11;;;;;;;125.97;71.32;;;4.70;81.10;;;;;;4901737;29;20044;-78
2023/03/14 01:10:40;;;;;;;122.13;68.30;;;4.70;1.00;;;;;;4909669;29;20051;-79
2023/03/14 01:13:07;;;;;;;113.47;64.63;;;4.70;44.60;;;;;;4928985;29;20046;-78
2023/03/14 01:15:37;;;;;;;107.53;59.78;;;4.70;1.00;;;;;;4903651;29;20040;-77
2023/03/14 01:18:05;;;;;;;104.40;57.55;;;4.70;1.00;;;;;;4916965;29;20048;-78
2023/03/14 01:20:33;;;;;;;115.70;57.83;;;4.70;46.70;;;;;;4899772;29;20036;-78
2023/03/14 01:23:02;;;;;;;113.35;55.08;;;4.80;1.00;;;;;;4900229;29;20056;-78
2023/03/14 01:25:29;;;;;;;116.90;57.17;;;4.80;1.00;;;;;;4916043;29;20040;-78
2023/03/14 01:27:57;;;;;;;117.43;57.08;;;4.80;1.00;;;;;;4902723;29;20056;-79
2023/03/14 01:30:25;;;;;;;101.20;49.95;;;4.80;1.00;;;;;;4898886;29;20100;-77
2023/03/14 01:32:52;;;;;;;135.23;63.00;;;4.80;1.00;;;;;;4899539;29;20052;-76
2023/03/14 01:35:20;;;;;;;118.03;60.58;;;4.80;1.00;;;;;;4898963;29;20052;-79
2023/03/14 01:37:48;;;;;;;107.13;53.20;;;4.80;1.00;;;;;;4899412;29;20108;-76
2023/03/14 01:40:22;;;;;;;111.47;58.50;;;4.90;1.00;;;;;;4898311;29;20067;-79
2023/03/14 01:42:56;;;;;;;112.68;55.65;;;4.90;1.00;;;;;;4899137;29;20096;-79
2023/03/14 01:46:01;;;;;;;96.40;49.67;;;4.90;1.00;;;;;;4898693;29;20050;-79
2023/03/14 01:48:33;;;;;;;104.38;52.75;;;4.90;1.00;;;;;;4898731;29;20054;-78
2023/03/14 01:51:03;;;;;;;96.20;51.00;;;4.80;1.00;;;;;;4897983;29;20040;-78
2023/03/14 01:53:30;;;;;;;91.85;47.88;;;4.80;1.00;;;;;;4897607;29;20060;-77
2023/03/14 01:55:59;;;;;;;85.22;47.55;;;4.80;1.00;;;;;;4898496;29;20040;-76
2023/03/14 01:58:32;;;;;;;85.95;45.58;;;4.80;1.00;;;;;;4898346;29;20139;-77
2023/03/14 02:01:00;;;;;;;93.10;47.78;;;4.80;1.00;;;;;;4898217;29;20044;-77
2023/03/14 02:03:30;;;;;;;84.43;45.00;;;4.70;1.00;;;;;;4898258;29;20060;-78
2023/03/14 02:06:05;;;;;;;103.22;53.03;;;4.70;1.00;;;;;;4898386;29;20725;-77
2023/03/14 02:08:36;;;;;;;94.07;47.60;;;4.70;1.00;;;;;;4897179;29;20116;-78
2023/03/14 02:11:09;;;;;;;88.95;47.25;;;4.60;1.00;;;;;;4897471;29;20048;-78
2023/03/14 02:13:57;;;;;;;93.10;48.30;;;4.60;1.00;;;;;;4914862;29;20564;-76
2023/03/14 02:16:48;;;;;;;93.60;47.63;;;4.60;1.00;;;;;;4905721;29;20052;-77
2023/03/14 02:19:49;;;;;;;88.18;46.72;;;4.60;66.40;;;;;;4897550;29;20498;-76
2023/03/14 02:22:34;;;;;;;96.57;47.20;;;4.60;99.90;;;;;;4896179;29;20048;-78
2023/03/14 02:25:12;;;;;;;91.68;46.75;;;4.60;99.90;;;;;;4902665;29;20040;-77
2023/03/14 02:27:41;;;;;;;93.05;48.35;;;4.60;99.90;;;;;;4911784;29;20417;-77
2023/03/14 02:30:13;;;;;;;88.80;46.28;;;4.60;3.10;;;;;;4912270;29;20044;-77
2023/03/14 02:32:47;;;;;;;87.22;46.13;;;4.60;99.90;;;;;;4917804;29;20074;-78
2023/03/14 02:35:19;;;;;;;82.20;43.40;;;4.50;99.90;;;;;;4914922;29;20924;-76
2023/03/14 02:37:50;;;;;;;87.63;44.45;;;4.60;99.90;;;;;;4919369;29;20044;-77
2023/03/14 02:40:18;;;;;;;81.90;42.80;;;4.60;99.90;;;;;;4903862;29;20076;-78
2023/03/14 02:42:48;;;;;;;87.28;45.88;;;4.60;99.90;;;;;;4897733;29;20126;-77
2023/03/14 02:45:42;;;;;;;84.65;45.17;;;4.60;99.90;;;;;;4896724;29;20106;-78
2023/03/14 02:48:15;;;;;;;77.35;42.55;;;4.50;99.90;;;;;;4897195;29;20104;-77
2023/03/14 02:50:44;;;;;;;71.15;37.30;;;4.50;99.90;;;;;;4898120;29;20135;-78
2023/03/14 02:53:15;;;;;;;68.25;35.97;;;4.40;99.90;;;;;;4897498;29;20116;-78
2023/03/14 02:55:47;;;;;;;72.75;40.30;;;4.50;99.90;;;;;;4896605;29;20108;-77
2023/03/14 02:58:17;;;;;;;69.75;39.33;;;4.50;99.90;;;;;;4896752;29;20048;-77
2023/03/14 03:00:47;;;;;;;72.78;39.50;;;4.60;99.90;;;;;;4895416;29;20068;-78
2023/03/14 03:03:15;;;;;;;60.25;34.00;;;4.60;99.90;;;;;;4897062;29;20119;-76
2023/03/14 03:05:43;;;;;;;61.95;33.20;;;4.70;99.90;;;;;;4913972;29;20131;-77
2023/03/14 03:08:12;;;;;;;62.75;33.55;;;4.70;3.40;;;;;;4896590;29;20152;-77
2023/03/14 03:10:39;;;;;;;53.47;31.00;;;4.70;1.00;;;;;;4896586;29;20047;-77
2023/03/14 03:13:08;;;;;;;57.53;31.02;;;4.80;1.00;;;;;;4896892;29;20531;-78
2023/03/14 03:15:37;;;;;;;60.78;31.60;;;4.80;1.00;;;;;;4913750;29;20075;-77
2023/03/14 03:18:04;;;;;;;64.65;34.85;;;4.90;1.00;;;;;;4896942;29;20559;-76
2023/03/14 03:20:32;;;;;;;59.63;32.75;;;4.90;1.00;;;;;;4896786;29;20036;-77
2023/03/14 03:23:00;;;;;;;70.80;36.03;;;4.90;1.00;;;;;;4897394;29;20489;-77
2023/03/14 03:25:28;;;;;;;65.85;35.33;;;5.00;1.00;;;;;;4895831;29;20485;-77
2023/03/14 03:27:56;;;;;;;63.15;34.33;;;5.00;1.00;;;;;;4901347;29;20536;-77
2023/03/14 03:30:23;;;;;;;58.80;33.75;;;5.00;1.00;;;;;;4904621;29;20424;-77
2023/03/14 03:32:52;;;;;;;60.15;32.17;;;5.00;1.00;;;;;;4917737;29;20044;-76
2023/03/14 03:35:20;;;;;;;70.30;36.85;;;5.00;1.00;;;;;;4899633;29;20060;-78
2023/03/14 03:37:47;;;;;;;56.80;31.35;;;5.00;1.00;;;;;;4912906;29;20055;-78
2023/03/14 03:40:15;;;;;;;63.38;34.22;;;5.00;1.00;;;;;;4908302;29;20075;-76
2023/03/14 03:42:42;;;;;;;64.68;34.15;;;5.10;1.00;;;;;;4901041;29;20116;-76
2023/03/14 03:45:12;;;;;;;62.30;32.45;;;5.10;1.00;;;;;;4909659;29;20485;-77
2023/03/14 03:47:49;;;;;;;54.67;29.73;;;5.10;1.00;;;;;;4903069;29;20489;-77
2023/03/14 03:50:18;;;;;;;56.95;31.40;;;5.10;1.00;;;;;;4896944;29;20048;-77
2023/03/14 03:52:46;;;;;;;65.93;34.17;;;5.00;1.00;;;;;;4912875;29;20504;-76
2023/03/14 03:55:13;;;;;;;61.25;31.88;;;5.00;1.00;;;;;;4897571;29;20052;-77
2023/03/14 03:57:41;;;;;;;54.83;33.05;;;5.00;1.00;;;;;;4897236;29;20037;-77
2023/03/14 04:00:12;;;;;;;54.28;30.40;;;5.00;1.00;;;;;;4897825;29;20547;-78
2023/03/14 04:02:42;;;;;;;51.58;30.27;;;5.00;1.00;;;;;;4914302;29;20052;-77
2023/03/14 04:05:13;;;;;;;56.63;31.30;;;5.00;1.00;;;;;;4904084;29;20079;-77
2023/03/14 04:07:50;;;;;;;63.25;35.53;;;5.00;1.00;;;;;;4896130;29;20088;-78
2023/03/14 04:10:23;;;;;;;66.72;36.22;;;5.00;1.00;;;;;;4896439;29;20165;-77
2023/03/14 04:13:08;;;;;;;56.72;32.47;;;5.00;1.00;;;;;;4897238;29;20140;-78
2023/03/14 04:15:36;;;;;;;57.33;32.38;;;4.90;1.00;;;;;;4896407;29;20048;-76
2023/03/14 04:18:10;;;;;;;53.92;30.65;;;4.90;1.00;;;;;;4896315;29;20436;-78
2023/03/14 04:20:38;;;;;;;52.03;29.75;;;4.90;1.00;;;;;;4895421;29;20048;-77
2023/03/14 04:23:07;;;;;;;52.08;28.55;;;4.90;1.00;;;;;;4895829;29;20124;-77
2023/03/14 04:25:35;;;;;;;48.42;28.60;;;5.00;1.00;;;;;;4896364;29;20048;-76
2023/03/14 04:28:05;;;;;;;49.80;26.75;;;5.00;1.00;;;;;;4895360;29;20043;-77
2023/03/14 04:30:34;;;;;;;47.50;27.63;;;5.00;1.00;;;;;;4895354;29;20570;-76
2023/03/14 04:33:12;;;;;;;44.53;26.45;;;5.00;1.00;;;;;;4895578;29;20139;-76
2023/03/14 04:35:45;;;;;;;45.17;27.70;;;5.00;1.00;;;;;;4896003;29;20079;-75
2023/03/14 04:38:16;;;;;;;47.22;28.00;;;4.90;1.00;;;;;;4896087;29;20048;-78
2023/03/14 04:40:46;;;;;;;53.28;30.85;;;4.90;1.00;;;;;;4898568;29;20408;-77
2023/03/14 04:43:15;;;;;;;42.10;26.38;;;4.90;1.00;;;;;;4917211;29;20096;-78
2023/03/14 04:45:50;;;;;;;50.00;29.20;;;4.90;1.00;;;;;;4899883;29;20560;-76
2023/03/14 04:48:19;;;;;;;43.53;26.58;;;4.90;1.00;;;;;;4906425;29;20076;-78
2023/03/14 04:50:48;;;;;;;49.05;28.90;;;4.90;1.00;;;;;;4920049;29;20051;-76
2023/03/14 04:53:18;;;;;;;53.65;31.15;;;4.90;1.00;;;;;;4917216;29;20088;-75
2023/03/14 04:55:50;;;;;;;62.17;35.08;;;4.90;1.00;;;;;;4899548;29;20171;-75
2023/03/14 04:58:18;;;;;;;59.90;34.78;;;4.90;1.00;;;;;;4897774;29;20135;-76
2023/03/14 05:00:46;;;;;;;54.13;31.75;;;4.90;1.00;;;;;;4897569;29;20386;-78
2023/03/14 05:03:37;;;;;;;64.80;31.45;;;4.90;99.90;;;;;;4880130;29;20059;-76
2023/03/14 05:06:28;;;;;;;57.45;31.75;;;4.90;99.90;;;;;;4906511;29;20048;-76
2023/03/14 05:09:18;;;;;;;59.50;31.92;;;4.90;99.90;;;;;;4913452;29;20087;-76
2023/03/14 05:11:59;;;;;;;60.97;33.67;;;4.90;99.90;;;;;;4914893;29;20036;-78
2023/03/14 05:14:45;;;;;;;60.08;32.97;;;5.00;99.90;;;;;;4913382;29;20511;-76
2023/03/14 05:17:20;;;;;;;51.08;28.70;;;5.00;63.90;;;;;;4916096;29;20052;-78
2023/03/14 05:19:48;;;;;;;52.70;26.55;;;4.90;1.00;;;;;;4914387;29;20168;-77
2023/03/14 05:22:33;;;;;;;53.22;29.52;;;5.00;1.00;;;;;;4914893;29;20044;-76
2023/03/14 05:25:34;;;;;;;54.53;27.58;;;5.00;1.00;;;;;;4904096;29;20080;-77
2023/03/14 05:28:12;;;;;;;50.40;29.33;;;5.10;1.00;;;;;;4914818;29;20052;-78
2023/03/14 05:30:53;;;;;;;49.85;27.92;;;5.20;1.00;;;;;;4913485;29;20098;-77
2023/03/14 05:33:41;;;;;;;59.30;32.10;;;5.20;1.00;;;;;;4915920;29;20489;-77
2023/03/14 05:36:35;;;;;;;63.70;32.53;;;5.30;1.00;;;;;;4913970;29;20063;-78
2023/03/14 05:39:28;;;;;;;62.60;34.03;;;5.40;1.00;;;;;;4912732;29;20152;-78
2023/03/14 05:42:23;;;;;;;61.30;31.92;;;5.50;1.00;;;;;;4913891;29;20040;-78
2023/03/14 05:45:17;;;;;;;53.83;28.63;;;5.60;1.00;;;;;;4900417;29;20437;-78
2023/03/14 05:48:07;;;;;;;50.33;27.17;;;5.60;99.90;;;;;;4915943;29;20574;-79
2023/03/14 05:50:44;;;;;;;51.17;27.48;;;5.70;99.90;;;;;;4913279;29;20433;-77
2023/03/14 05:53:21;;;;;;;45.38;26.05;;;5.70;99.90;;;;;;4921108;29;20174;-78
2023/03/14 05:56:14;;;;;;;61.25;29.98;;;5.90;99.90;;;;;;4933279;29;20060;-77
2023/03/14 05:59:03;;;;;;;59.15;34.85;;;6.00;99.90;;;;;;4903454;29;20143;-76
2023/03/14 06:01:39;;;;;;;69.80;38.10;;;6.10;99.90;;;;;;4914930;29;20134;-77
2023/03/14 06:04:19;;;;;;;74.93;41.38;;;6.20;99.90;;;;;;4915439;29;20511;-76
2023/03/14 06:06:51;;;;;;;96.95;52.88;;;6.30;99.90;;;;;;4917867;29;20083;-77
2023/03/14 06:09:22;;;;;;;74.57;42.67;;;6.40;63.80;;;;;;4900100;29;20075;-79
2023/03/14 06:11:49;;;;;;;79.20;44.50;;;6.50;1.00;;;;;;4898209;29;20072;-76
2023/03/14 06:14:19;;;;;;;86.38;45.92;;;6.60;1.00;;;;;;4898420;29;20139;-77
2023/03/14 06:16:49;;;;;;;76.30;44.90;;;6.70;1.00;;;;;;4898827;29;20049;-78
2023/03/14 06:19:18;;;;;;;75.35;43.95;;;6.80;1.00;;;;;;4897764;29;20041;-76
2023/03/14 06:21:46;;;;;;;83.97;47.13;;;6.90;1.00;;;;;;4897847;29;20060;-77
2023/03/14 06:24:13;;;;;;;79.88;47.20;;;7.00;1.00;;;;;;4899816;29;20053;-78
2023/03/14 06:26:45;;;;;;;88.88;46.38;;;7.00;1.00;;;;;;4904979;29;20073;-77
2023/03/14 06:29:13;;;;;;;81.13;45.72;;;7.10;1.00;;;;;;4902159;29;20048;-76
2023/03/14 06:31:43;;;;;;;90.00;47.45;;;7.10;1.00;;;;;;4897166;29;20128;-75
2023/03/14 06:34:11;;;;;;;75.20;44.83;;;7.20;1.00;;;;;;4897464;29;20056;-76
2023/03/14 06:36:40;;;;;;;75.35;43.88;;;7.30;1.00;;;;;;4897333;29;20056;-77
2023/03/14 06:39:09;;;;;;;86.18;51.38;;;7.50;1.00;;;;;;4897556;29;20525;-77
2023/03/14 06:41:40;;;;;;;93.22;56.50;;;7.60;1.00;;;;;;4897471;29;20072;-77
2023/03/14 06:44:10;;;;;;;102.38;63.03;;;7.80;1.00;;;;;;4901570;29;20529;-77
2023/03/14 06:46:38;;;;;;;108.15;61.70;;;8.00;1.00;;;;;;4897191;29;20051;-76
2023/03/14 06:49:08;;;;;;;104.05;58.67;;;8.20;1.00;;;;;;4897799;29;20048;-76
2023/03/14 06:51:37;;;;;;;97.88;57.00;;;8.40;1.00;;;;;;4898634;29;20063;-77
2023/03/14 06:54:06;;;;;;;101.35;56.65;;;8.60;1.00;;;;;;4896573;29;20063;-75
2023/03/14 06:56:34;;;;;;;95.88;55.92;;;8.70;1.00;;;;;;4913170;29;20040;-76
2023/03/14 06:59:01;;;;;;;96.10;55.30;;;8.90;1.00;;;;;;4913830;29;20048;-75
2023/03/14 07:01:34;;;;;;;94.10;53.45;;;9.00;1.00;;;;;;4913735;29;20040;-77
2023/03/14 07:04:12;;;;;;;85.85;53.10;;;9.10;1.00;;;;;;4902380;29;20048;-78
2023/03/14 07:06:46;;;;;;;84.13;52.20;;;9.20;1.00;;;;;;4898692;29;20052;-76
2023/03/14 07:09:14;;;;;;;88.55;53.97;;;9.40;1.00;;;;;;4898553;29;20044;-76
2023/03/14 07:11:47;;;;;;;99.03;55.55;;;9.60;1.00;;;;;;4898398;29;20076;-75
2023/03/14 07:14:15;;;;;;;105.38;65.53;;;9.70;1.00;;;;;;4896286;29;20052;-76
2023/03/14 07:16:42;;;;;;;111.65;66.90;;;9.90;1.00;;;;;;4896894;29;20118;-76
2023/03/14 07:19:10;;;;;;;118.13;72.68;;;10.00;1.00;;;;;;4896547;29;20105;-77
2023/03/14 07:21:39;;;;;;;112.63;73.88;;;10.20;1.00;;;;;;4914540;29;20048;-77
2023/03/14 07:24:11;;;;;;;111.28;68.97;;;10.40;1.00;;;;;;4912873;29;20381;-79
2023/03/14 07:26:38;;;;;;;108.30;65.50;;;10.70;1.00;;;;;;4898289;29;20075;-78
2023/03/14 07:29:06;;;;;;;126.18;70.32;;;10.80;1.00;;;;;;4897537;29;20047;-75
2023/03/14 07:31:34;;;;;;;121.78;72.07;;;11.00;1.00;;;;;;4905895;29;20520;-77
2023/03/14 07:34:03;;;;;;;114.90;69.28;;;11.20;1.00;;;;;;4897353;29;20135;-76
2023/03/14 07:36:35;;;;;;;113.95;69.43;;;11.40;1.00;;;;;;4896776;29;20131;-77
2023/03/14 07:39:06;;;;;;;119.25;71.90;;;11.60;1.00;;;;;;4896741;29;20052;-76
2023/03/14 07:41:54;;;;;;;124.18;77.95;;;11.70;1.00;;;;;;4912392;29;20135;-77
2023/03/14 07:44:34;;;;;;;121.43;74.00;;;12.10;99.90;;;;;;4913973;29;20048;-74
2023/03/14 07:47:01;;;;;;;127.78;82.85;;;12.40;99.90;;;;;;4913612;29;20044;-77
2023/03/14 07:49:29;;;;;;;139.13;87.20;;;12.70;99.90;;;;;;4913820;29;20052;-76
2023/03/14 07:51:56;;;;;;;138.43;83.90;;;13.10;99.90;;;;;;4914390;29;20040;-78
2023/03/14 07:54:25;;;;;;;124.90;82.47;;;13.50;99.90;;;;;;4913668;29;20051;-77
2023/03/14 07:56:52;;;;;;;121.43;79.15;;;13.80;99.90;;;;;;4913690;29;20048;-75
2023/03/14 07:59:20;;;;;;;125.82;78.60;;;14.00;99.90;;;;;;4913598;29;20051;-76
2023/03/14 08:01:48;;;;;;;118.53;77.97;;;14.30;99.90;;;;;;4913102;29;20040;-74
2023/03/14 08:04:15;;;;;;;84.82;52.90;;;14.50;99.90;;;;;;4915253;29;20048;-76
2023/03/14 08:06:42;;;;;;;113.18;72.63;;;14.70;99.90;;;;;;4913288;29;20036;-76
2023/03/14 08:09:10;;;;;;;60.15;36.60;;;14.90;99.90;;;;;;4912653;29;20044;-75
2023/03/14 08:11:39;;;;;;;39.58;24.70;;;15.20;99.90;;;;;;4912523;29;20049;-76
2023/03/14 08:14:06;;;;;;;43.65;27.52;;;15.30;99.90;;;;;;4912520;29;20477;-77
2023/03/14 08:16:34;;;;;;;51.55;32.97;;;15.50;99.90;;;;;;4913862;29;20059;-76
2023/03/14 08:19:01;;;;;;;49.20;30.23;;;15.60;99.90;;;;;;4913339;29;20584;-77
2023/03/14 08:21:29;;;;;;;29.13;17.23;;;15.80;99.90;;;;;;4913223;29;20051;-76
2023/03/14 08:23:56;;;;;;;22.45;14.50;;;16.00;99.90;;;;;;4913670;29;20068;-76
2023/03/14 08:26:23;;;;;;;18.13;9.77;;;16.00;99.90;;;;;;4896968;29;20040;-77
2023/03/14 08:28:52;;;;;;;11.32;6.32;;;16.20;99.90;;;;;;4914032;29;20059;-77
2023/03/14 08:31:20;;;;;;;7.25;4.05;;;16.40;99.90;;;;;;4912563;29;20138;-75
2023/03/14 08:33:47;;;;;;;8.75;4.88;;;16.60;99.90;;;;;;4896315;29;20488;-76
2023/03/14 08:36:15;;;;;;;5.50;2.90;;;16.80;99.90;;;;;;4913420;29;20051;-76
2023/03/14 08:38:42;;;;;;;4.15;2.35;;;17.00;99.90;;;;;;4913264;29;20044;-75
2023/03/14 08:41:10;;;;;;;5.80;2.92;;;17.10;99.90;;;;;;4912788;29;20048;-74
2023/03/14 08:43:38;;;;;;;7.75;2.90;;;17.30;99.90;;;;;;4913609;29;20199;-77
2023/03/14 08:46:07;;;;;;;8.20;2.40;;;17.40;99.90;;;;;;4913565;29;20067;-76
2023/03/14 08:48:35;;;;;;;8.73;3.85;;;17.40;99.90;;;;;;4913112;29;20047;-76
2023/03/14 08:51:06;;;;;;;5.45;2.55;;;17.60;99.90;;;;;;4914553;29;20123;-76
2023/03/14 08:53:34;;;;;;;7.78;2.20;;;17.60;99.90;;;;;;4916548;29;20044;-76
2023/03/14 08:56:01;;;;;;;5.18;1.98;;;17.60;99.90;;;;;;4913173;29;20037;-74
2023/03/14 08:58:29;;;;;;;4.63;2.42;;;17.70;99.90;;;;;;4912756;29;20047;-77
2023/03/14 09:00:57;;;;;;;4.70;2.15;;;17.80;99.90;;;;;;4913223;29;20100;-77
2023/03/14 09:03:26;;;;;;;5.13;2.38;;;17.80;99.90;;;;;;4912855;29;20592;-76
2023/03/14 09:05:54;;;;;;;5.30;2.60;;;17.90;99.90;;;;;;4912824;29;20051;-75
2023/03/14 09:08:21;;;;;;;7.47;2.28;;;18.00;99.90;;;;;;4912480;29;20052;-77
2023/03/14 09:10:48;;;;;;;6.07;2.70;;;18.00;99.90;;;;;;4896239;29;20047;-75
2023/03/14 09:13:16;;;;;;;6.65;2.75;;;18.00;99.90;;;;;;4913480;29;20564;-75
2023/03/14 09:15:43;;;;;;;7.20;2.88;;;18.10;99.90;;;;;;4913556;29;20044;-75
2023/03/14 09:18:11;;;;;;;6.00;3.13;;;18.00;99.90;;;;;;4914478;29;20075;-75
2023/03/14 09:20:41;;;;;;;7.68;3.45;;;17.90;99.90;;;;;;4926995;29;20048;-76
2023/03/14 09:23:09;;;;;;;8.82;3.72;;;17.90;99.90;;;;;;4924678;29;20103;-76
2023/03/14 09:25:36;;;;;;;8.13;3.75;;;17.80;99.90;;;;;;4916815;29;20178;-76
2023/03/14 09:28:04;;;;;;;7.03;3.28;;;17.90;99.90;;;;;;4900214;29;20060;-77
2023/03/14 09:30:31;;;;;;;6.97;3.53;;;17.80;99.90;;;;;;4916428;29;20229;-75
2023/03/14 09:32:58;;;;;;;9.68;5.60;;;17.90;99.90;;;;;;4923687;29;20044;-76
2023/03/14 09:35:26;;;;;;;6.50;3.60;;;18.10;99.90;;;;;;4918651;29;20078;-75
2023/03/14 09:37:55;;;;;;;7.35;3.53;;;18.20;99.90;;;;;;4916551;29;20123;-75
2023/03/14 09:40:23;;;;;;;6.15;2.88;;;18.40;99.90;;;;;;4916123;29;20044;-74
2023/03/14 09:42:54;;;;;;;5.25;3.15;;;18.50;99.90;;;;;;4916424;29;20051;-75
2023/03/14 09:45:28;;;;;;;7.50;2.70;;;18.60;99.90;;;;;;4916130;29;20116;-77
2023/03/14 09:47:58;;;;;;;11.90;3.10;;;18.60;99.90;;;;;;4915525;29;20050;-76
2023/03/14 09:50:26;;;;;;;7.75;2.53;;;18.60;99.90;;;;;;4899023;29;20040;-77
2023/03/14 09:53:00;;;;;;;8.02;2.55;;;18.70;99.90;;;;;;4900022;29;20048;-77
2023/03/14 09:55:27;;;;;;;4.63;2.22;;;18.80;99.90;;;;;;4898503;29;20067;-76
2023/03/14 09:58:00;;;;;;;2.78;1.65;;;18.90;99.90;;;;;;4914373;29;20044;-78
2023/03/14 10:00:30;;;;;;;12.48;2.50;;;18.90;99.90;;;;;;4917465;29;20036;-77
2023/03/14 10:03:02;;;;;;;9.13;2.13;;;18.80;99.90;;;;;;4915060;29;20132;-78
2023/03/14 10:05:30;;;;;;;5.88;2.10;;;18.90;99.90;;;;;;4914154;29;20059;-76
2023/03/14 10:07:59;;;;;;;3.90;1.40;;;19.10;99.90;;;;;;4914801;29;20091;-75
2023/03/14 10:10:27;;;;;;;6.13;1.88;;;19.00;99.90;;;;;;4914874;29;20051;-76
2023/03/14 10:12:58;;;;;;;2.78;1.48;;;19.10;99.90;;;;;;4915416;29;20044;-76
2023/03/14 10:15:28;;;;;;;3.50;1.70;;;19.10;99.90;;;;;;4914666;29;20052;-76
2023/03/14 10:17:56;;;;;;;4.47;1.83;;;19.20;99.90;;;;;;4915097;29;20075;-76
2023/03/14 10:20:33;;;;;;;7.75;2.50;;;19.20;99.90;;;;;;4916624;29;20040;-75
2023/03/14 10:23:05;;;;;;;8.65;2.53;;;19.30;99.90;;;;;;4917898;29;20583;-77
2023/03/14 10:25:33;;;;;;;4.85;1.65;;;19.50;99.90;;;;;;4917724;29;20044;-75
2023/03/14 10:28:01;;;;;;;3.08;1.70;;;19.60;99.90;;;;;;4915979;29;20071;-75
2023/03/14 10:30:33;;;;;;;23.25;5.22;;;19.60;99.90;;;;;;4914793;29;20036;-77
2023/03/14 10:33:09;;;;;;;6.93;2.20;;;19.70;99.90;;;;;;4915105;29;20074;-77
2023/03/14 10:35:37;;;;;;;3.65;1.92;;;19.80;99.90;;;;;;4915535;29;20056;-74
2023/03/14 10:38:06;;;;;;;5.30;2.97;;;19.80;99.90;;;;;;4915597;29;20051;-74
2023/03/14 10:40:38;;;;;;;6.18;3.85;;;19.80;99.90;;;;;;4915606;29;20040;-75
2023/03/14 10:43:07;;;;;;;5.43;2.20;;;19.90;99.90;;;;;;4917330;29;20127;-76
2023/03/14 10:45:38;;;;;;;3.63;1.60;;;20.00;99.90;;;;;;4918585;29;20056;-77
2023/03/14 10:48:21;;;;;;;4.85;1.85;;;20.10;99.90;;;;;;4924679;29;20052;-77
2023/03/14 10:50:56;;;;;;;14.20;3.30;;;20.40;99.90;;;;;;4922822;29;20043;-74
2023/03/14 10:53:25;;;;;;;;;;;20.60;99.90;;;;;;4918732;29;20047;-77
2023/03/14 10:55:53;;;;;;;5.97;2.05;;;20.80;99.90;;;;;;4899418;29;19923;-76
2023/03/14 10:58:26;;;;;;;5.20;2.83;;;21.10;99.90;;;;;;4915950;29;20040;-74
2023/03/14 11:01:01;;;;;;;7.95;3.13;;;21.40;99.90;;;;;;4916464;29;20043;-76
2023/03/14 11:03:32;;;;;;;6.55;3.42;;;21.60;99.90;;;;;;4888835;29;20480;-76
2023/03/14 11:06:07;;;;;;;7.32;2.75;;;21.50;99.90;;;;;;4917519;29;20044;-75
2023/03/14 11:08:40;;;;;;;3.05;1.92;;;21.50;99.90;;;;;;4915427;29;20075;-75
2023/03/14 11:11:19;;;;;;;2.90;1.70;;;21.50;99.90;;;;;;4914755;29;20044;-75
2023/03/14 11:13:58;;;;;;;5.90;2.65;;;21.70;99.90;;;;;;4914726;29;20040;-75
2023/03/14 11:16:31;;;;;;;3.75;1.52;;;21.70;99.90;;;;;;4914588;29;20048;-76
2023/03/14 11:19:14;;;;;;;4.32;1.65;;;21.70;99.90;;;;;;4916449;29;20211;-75
2023/03/14 11:21:47;;;;;;;7.10;2.80;;;21.80;99.90;;;;;;4917559;29;20036;-76
2023/03/14 11:24:42;;;;;;;7.18;4.10;;;21.80;99.90;;;;;;4916791;29;20086;-76
2023/03/14 11:27:17;;;;;;;7.28;3.60;;;21.80;99.90;;;;;;4918883;29;20054;-75
2023/03/14 11:29:54;;;;;;;6.55;2.78;;;21.80;99.90;;;;;;4920758;29;20155;-76
2023/03/14 11:32:36;;;;;;;11.95;5.80;;;21.80;99.90;;;;;;4917856;29;20072;-76
2023/03/14 11:35:10;;;;;;;9.30;4.88;;;22.00;99.90;;;;;;4916801;29;20497;-77
2023/03/14 11:37:45;;;;;;;6.95;3.20;;;22.00;99.90;;;;;;4924609;29;20047;-77
2023/03/14 11:40:18;;;;;;;5.05;2.95;;;21.80;99.90;;;;;;4917889;29;20048;-79
2023/03/14 11:42:55;;;;;;;9.93;4.53;;;21.60;99.90;;;;;;4898051;29;20055;-76
2023/03/14 11:45:27;;;;;;;10.77;3.33;;;21.30;99.90;;;;;;4919312;29;20052;-78
2023/03/14 11:48:04;;;;;;;6.10;2.53;;;21.10;99.90;;;;;;4899559;29;20557;-77
2023/03/14 11:50:32;;;;;;;6.55;2.38;;;20.90;99.90;;;;;;4918999;29;20055;-74
2023/03/14 11:53:05;;;;;;;9.02;2.15;;;20.90;99.90;;;;;;4917854;29;20048;-75
2023/03/14 11:55:36;;;;;;;5.07;2.80;;;20.80;99.90;;;;;;4914527;29;20527;-76
2023/03/14 11:58:14;;;;;;;4.68;2.50;;;20.80;99.90;;;;;;4916138;29;20040;-77
2023/03/14 12:00:42;;;;;;;8.02;3.20;;;20.80;99.90;;;;;;4916925;29;20409;-77
2023/03/14 12:03:18;;;;;;;7.55;2.58;;;20.70;99.90;;;;;;4921691;29;20385;-77
2023/03/14 12:05:53;;;;;;;4.38;1.83;;;20.70;99.90;;;;;;4919062;29;20127;-75
2023/03/14 12:08:38;;;;;;;5.55;2.70;;;20.70;99.90;;;;;;4915880;29;20060;-75
2023/03/14 12:11:15;;;;;;;4.75;2.80;;;20.70;99.90;;;;;;4901624;29;20067;-76
2023/03/14 12:13:48;;;;;;;6.57;2.50;;;20.70;99.90;;;;;;4931525;29;20025;-75
2023/03/14 12:16:38;;;;;;;8.93;3.63;;;20.70;99.90;;;;;;4900388;29;20057;-76
2023/03/14 12:19:36;;;;;;;4.30;2.75;;;20.70;99.90;;;;;;4900153;29;20048;-76
2023/03/14 12:22:25;;;;;;;9.02;3.20;;;20.80;99.90;;;;;;4930626;29;20036;-77
2023/03/14 12:24:56;;;;;;;4.22;2.30;;;20.90;99.90;;;;;;4907492;29;20060;-76
2023/03/14 12:27:45;;;;;;;5.25;1.80;;;20.90;99.90;;;;;;4913646;29;20048;-75
2023/03/14 12:30:27;;;;;;;5.45;1.60;;;20.70;99.90;;;;;;4913065;29;20037;-76
2023/03/14 12:33:20;;;;;;;7.90;2.15;;;20.60;99.90;;;;;;4913668;29;20040;-75
2023/03/14 12:35:49;;;;;;;9.57;2.60;;;20.60;99.90;;;;;;4896867;29;20219;-77
2023/03/14 12:38:22;;;;;;;3.20;1.40;;;20.60;99.90;;;;;;4914144;29;20143;-78
2023/03/14 12:40:59;;;;;;;3.70;1.90;;;20.70;99.90;;;;;;4913032;29;20051;-76
2023/03/14 12:43:30;;;;;;;7.43;5.47;;;20.70;99.90;;;;;;4913889;29;20579;-79
2023/03/14 12:46:20;;;;;;;4.70;2.85;;;20.70;99.90;;;;;;4913818;29;20041;-77
2023/03/14 12:48:50;;;;;;;4.38;1.63;;;20.70;99.90;;;;;;4914349;29;20040;-77
2023/03/14 12:51:20;;;;;;;4.28;2.78;;;20.70;99.90;;;;;;4896772;29;20038;-81
2023/03/14 12:54:16;;;;;;;7.03;2.90;;;20.70;99.90;;;;;;4891326;29;20519;-79
2023/03/14 12:57:11;;;;;;;5.22;2.13;;;20.80;99.90;;;;;;4911358;29;20112;-79
2023/03/14 12:59:46;;;;;;;8.02;2.15;;;20.80;99.90;;;;;;4913396;29;20079;-77
2023/03/14 13:02:24;;;;;;;;;;;20.80;99.90;;;;;;4900728;29;20127;-76
2023/03/14 13:05:00;;;;;;;11.50;4.93;;;20.70;99.90;;;;;;4918070;29;19927;-79
2023/03/14 13:07:59;;;;;;;;;;;20.70;99.90;;;;;;4917752;29;20088;-77
2023/03/14 13:10:29;;;;;;;4.38;2.38;;;20.60;99.90;;;;;;4894572;29;19927;-77